Weather at Mayor General FAP Armando Revoredo Iglesias Airport

Public forecast

Using degrees Celsius for public forecast. Weather courtesy of forecast.io.

Current aviation weather report (METAR) for Mayor General FAP Armando Revoredo Iglesias Airport

Report is more than 6 hours old.

Retrieved 2020/09/19 19:00 UTC (15 hours ago):

SPJR 191900Z 07005KT 020V120 9999 SCT023 BKN043 21/07 Q1026 RMK PP000

Aviation forecast (TAF) for Mayor General FAP Armando Revoredo Iglesias Airport

Forecast is more than 12 hours old.

Retrieved 2020/09/19 18:33 UTC (16 hours ago):

TAF SPJR 191715Z 1918/2018 VRB04KT 9999 SCT023 BKN043 TX20/1919Z TN05/2011Z FM192300 04003KT 8000 SCT015 BKN040 FM201030 VRB02KT 9999 FEW020 SCT040